createdAt,value
2022-09-30T00:00:15.406Z,995.85
2022-09-30T00:01:15.390Z,995.86
2022-09-30T00:02:15.380Z,995.87
2022-09-30T00:03:15.373Z,995.8
2022-09-30T00:04:15.375Z,995.85
2022-09-30T00:05:15.367Z,995.87
2022-09-30T00:06:15.364Z,995.9
2022-09-30T00:07:15.334Z,995.86
2022-09-30T00:08:15.329Z,995.83
2022-09-30T00:09:15.315Z,995.84
2022-09-30T00:10:15.304Z,995.84
2022-09-30T00:11:15.334Z,995.91
2022-09-30T00:12:15.281Z,995.88
2022-09-30T00:13:15.270Z,995.94
2022-09-30T00:14:15.260Z,995.91
2022-09-30T00:15:15.254Z,995.9
2022-09-30T00:16:15.241Z,995.92
2022-09-30T00:17:15.228Z,995.92
2022-09-30T00:18:15.216Z,995.92
2022-09-30T00:19:15.206Z,995.9
2022-09-30T00:20:15.195Z,995.91
2022-09-30T00:21:15.189Z,995.92
2022-09-30T00:22:15.174Z,995.95
2022-09-30T00:23:15.173Z,995.92
2022-09-30T00:24:15.156Z,995.91
2022-09-30T00:25:15.142Z,995.93
2022-09-30T00:26:15.131Z,995.91
2022-09-30T00:27:15.124Z,995.96
2022-09-30T00:28:15.109Z,995.98
2022-09-30T00:29:15.107Z,995.92
2022-09-30T00:30:15.088Z,995.96
2022-09-30T00:31:15.083Z,995.97
2022-09-30T00:32:15.065Z,995.96
2022-09-30T00:33:15.060Z,995.94
2022-09-30T00:34:15.058Z,995.97
2022-09-30T00:35:15.035Z,995.91
2022-09-30T00:36:15.022Z,995.9
2022-09-30T00:37:15.013Z,995.91
2022-09-30T00:38:15.009Z,995.99
2022-09-30T00:39:14.992Z,995.95
2022-09-30T00:40:14.982Z,996.06
2022-09-30T00:41:14.976Z,996.01
2022-09-30T00:42:14.958Z,996.02
2022-09-30T00:43:14.949Z,996.05
2022-09-30T00:44:14.944Z,996.04
2022-09-30T00:45:14.934Z,996.08
2022-09-30T00:46:14.920Z,996.03
2022-09-30T00:47:14.905Z,996.03
2022-09-30T00:48:14.901Z,996.03
2022-09-30T00:49:14.890Z,996.11
2022-09-30T00:50:14.885Z,996.06
2022-09-30T00:51:14.872Z,996.03
2022-09-30T00:52:14.861Z,996.09
2022-09-30T00:53:14.845Z,996.1
2022-09-30T00:54:14.845Z,996.1
2022-09-30T00:55:14.820Z,996.08
2022-09-30T00:56:14.829Z,996.17
2022-09-30T00:57:14.802Z,996.15
2022-09-30T00:58:14.789Z,996.18
2022-09-30T00:59:14.777Z,996.18
2022-09-30T01:00:14.770Z,996.18
2022-09-30T01:01:14.756Z,996.2
2022-09-30T01:02:14.745Z,996.29
2022-09-30T01:03:14.739Z,996.25
2022-09-30T01:04:14.741Z,996.25
2022-09-30T01:05:14.713Z,996.24
2022-09-30T01:06:14.705Z,996.28
2022-09-30T01:07:14.692Z,996.31
2022-09-30T01:08:14.681Z,996.29
2022-09-30T01:09:14.673Z,996.24
2022-09-30T01:10:14.664Z,996.26
2022-09-30T01:11:14.653Z,996.23
2022-09-30T01:12:14.644Z,996.32
2022-09-30T01:13:14.632Z,996.23
2022-09-30T01:14:14.616Z,996.25
2022-09-30T01:15:14.609Z,996.28
2022-09-30T01:16:14.597Z,996.27
2022-09-30T01:17:14.600Z,996.24
2022-09-30T01:18:14.575Z,996.28
2022-09-30T01:19:14.565Z,996.23
2022-09-30T01:20:14.554Z,996.22
2022-09-30T01:21:14.545Z,996.23
2022-09-30T01:22:14.536Z,996.27
2022-09-30T01:23:14.522Z,996.28
2022-09-30T01:24:14.510Z,996.28
2022-09-30T01:25:14.506Z,996.26
2022-09-30T01:26:14.492Z,996.24
2022-09-30T01:27:14.478Z,996.26
2022-09-30T01:28:14.471Z,996.2
2022-09-30T01:29:14.461Z,996.21
2022-09-30T01:30:14.452Z,996.27
2022-09-30T01:31:14.443Z,996.25
2022-09-30T01:32:14.426Z,996.28
2022-09-30T01:33:14.426Z,996.26
2022-09-30T01:34:14.409Z,996.3
2022-09-30T01:35:14.393Z,996.3
2022-09-30T01:36:14.386Z,996.27
2022-09-30T01:37:14.371Z,996.29
2022-09-30T01:38:14.356Z,996.29
2022-09-30T01:39:14.345Z,996.28
2022-09-30T01:40:14.334Z,996.27
2022-09-30T01:41:14.323Z,996.31
2022-09-30T01:42:14.319Z,996.27
2022-09-30T01:43:14.298Z,996.27
2022-09-30T01:44:14.289Z,996.22
2022-09-30T01:45:14.280Z,996.22
2022-09-30T01:46:14.266Z,996.21
2022-09-30T01:47:14.258Z,996.18
2022-09-30T01:48:14.258Z,996.23
2022-09-30T01:49:14.238Z,996.18
2022-09-30T01:50:14.223Z,996.2
2022-09-30T01:51:14.213Z,996.2
2022-09-30T01:52:14.206Z,996.19
2022-09-30T01:53:14.192Z,996.13
2022-09-30T01:54:14.180Z,996.21
2022-09-30T01:55:14.168Z,996.2
2022-09-30T01:56:14.156Z,996.16
2022-09-30T01:57:14.148Z,996.23
2022-09-30T01:58:14.135Z,996.21
2022-09-30T01:59:14.124Z,996.17
2022-09-30T02:00:14.113Z,996.23
2022-09-30T02:01:14.101Z,996.2
2022-09-30T02:02:14.092Z,996.22
2022-09-30T02:03:14.092Z,996.22
2022-09-30T02:04:14.073Z,996.24
2022-09-30T02:05:14.057Z,996.23
2022-09-30T02:06:14.049Z,996.22
2022-09-30T02:07:14.036Z,996.17
2022-09-30T02:08:14.025Z,996.14
2022-09-30T02:09:14.014Z,996.2
2022-09-30T02:10:14.005Z,996.18
2022-09-30T02:11:14.015Z,996.19
2022-09-30T02:12:13.986Z,996.19
2022-09-30T02:13:13.975Z,996.28
2022-09-30T02:14:13.961Z,996.32
2022-09-30T02:15:13.951Z,996.21
2022-09-30T02:16:13.942Z,996.29
2022-09-30T02:17:13.929Z,996.28
2022-09-30T02:18:13.930Z,996.35
2022-09-30T02:19:13.909Z,996.38
2022-09-30T02:20:13.898Z,996.31
2022-09-30T02:21:13.891Z,996.36
2022-09-30T02:22:13.878Z,996.4
2022-09-30T02:23:13.865Z,996.41
2022-09-30T02:24:13.862Z,996.41
2022-09-30T02:25:13.849Z,996.42
2022-09-30T02:26:13.834Z,996.45
2022-09-30T02:27:13.820Z,996.44
2022-09-30T02:28:13.810Z,996.5
2022-09-30T02:29:13.804Z,996.4
2022-09-30T02:30:13.793Z,996.42
2022-09-30T02:31:13.783Z,996.46
2022-09-30T02:32:13.767Z,996.44
2022-09-30T02:33:13.761Z,996.41
2022-09-30T02:34:13.748Z,996.47
2022-09-30T02:35:13.736Z,996.43
2022-09-30T02:36:13.726Z,996.43
2022-09-30T02:37:13.723Z,996.44
2022-09-30T02:38:13.705Z,996.44
2022-09-30T02:39:13.699Z,996.49
2022-09-30T02:40:13.685Z,996.44
2022-09-30T02:41:13.673Z,996.48
2022-09-30T02:42:13.664Z,996.44
2022-09-30T02:43:13.683Z,996.47
2022-09-30T02:44:13.645Z,996.48
2022-09-30T02:45:13.630Z,996.49
2022-09-30T02:46:13.619Z,996.55
2022-09-30T02:47:13.614Z,996.54
2022-09-30T02:48:13.600Z,996.6
2022-09-30T02:49:13.592Z,996.57
2022-09-30T02:50:13.582Z,996.62
2022-09-30T02:51:13.573Z,996.65
2022-09-30T02:52:13.576Z,996.63
2022-09-30T02:53:13.549Z,996.67
2022-09-30T02:54:13.536Z,996.61
2022-09-30T02:55:13.528Z,996.62
2022-09-30T02:56:13.520Z,996.61
2022-09-30T02:57:13.503Z,996.57
2022-09-30T02:58:13.501Z,996.59
2022-09-30T02:59:13.480Z,996.55
2022-09-30T03:00:13.474Z,996.52
2022-09-30T03:01:13.458Z,996.59
2022-09-30T03:02:13.449Z,996.62
2022-09-30T03:03:13.438Z,996.62
2022-09-30T03:04:13.430Z,996.58
2022-09-30T03:05:13.420Z,996.58
2022-09-30T03:06:13.408Z,996.56
2022-09-30T03:07:13.401Z,996.59
2022-09-30T03:08:13.391Z,996.6
2022-09-30T03:09:13.377Z,996.64
2022-09-30T03:10:13.365Z,996.59
2022-09-30T03:11:13.359Z,996.62
2022-09-30T03:12:13.347Z,996.64
2022-09-30T03:13:13.335Z,996.63
2022-09-30T03:14:13.322Z,996.6
2022-09-30T03:15:13.316Z,996.62
2022-09-30T03:16:13.302Z,996.61
2022-09-30T03:17:13.291Z,996.67
2022-09-30T03:18:13.278Z,996.64
2022-09-30T03:19:13.268Z,996.62
2022-09-30T03:20:13.259Z,996.67
2022-09-30T03:21:13.266Z,996.7
2022-09-30T03:22:13.256Z,996.72
2022-09-30T03:23:13.249Z,996.72
2022-09-30T03:24:13.221Z,996.71
2022-09-30T03:25:13.205Z,996.7
2022-09-30T03:26:13.199Z,996.77
2022-09-30T03:27:13.186Z,996.75
2022-09-30T03:28:13.174Z,996.78
2022-09-30T03:29:13.162Z,996.77
2022-09-30T03:30:13.153Z,996.77
2022-09-30T03:31:13.145Z,996.76
2022-09-30T03:32:13.133Z,996.78
2022-09-30T03:33:13.119Z,996.78
2022-09-30T03:34:13.117Z,996.78
2022-09-30T03:35:13.103Z,996.71
2022-09-30T03:36:13.091Z,996.77
2022-09-30T03:37:13.081Z,996.77
2022-09-30T03:38:13.065Z,996.76
2022-09-30T03:39:13.061Z,996.82
2022-09-30T03:40:13.049Z,996.82
2022-09-30T03:41:13.035Z,996.83
2022-09-30T03:42:13.026Z,996.85
2022-09-30T03:43:13.025Z,996.85
2022-09-30T03:44:13.005Z,996.87
2022-09-30T03:45:12.996Z,996.88
2022-09-30T03:46:12.982Z,996.85
2022-09-30T03:47:12.975Z,996.87
2022-09-30T03:48:13.019Z,996.85
2022-09-30T03:49:12.992Z,996.86
2022-09-30T03:50:12.946Z,996.89
2022-09-30T03:51:12.929Z,996.93
2022-09-30T03:52:12.917Z,996.88
2022-09-30T03:53:12.906Z,996.92
2022-09-30T03:54:12.899Z,996.87
2022-09-30T03:55:12.887Z,996.91
2022-09-30T03:56:12.878Z,996.94
2022-09-30T03:57:12.870Z,996.93
2022-09-30T03:58:12.856Z,996.91
2022-09-30T03:59:12.847Z,996.93
2022-09-30T04:00:12.845Z,996.95
2022-09-30T04:01:12.826Z,996.98
2022-09-30T04:02:12.817Z,996.9
2022-09-30T04:03:12.806Z,996.94
2022-09-30T04:04:12.794Z,996.96
2022-09-30T04:05:12.781Z,997
2022-09-30T04:06:12.769Z,997.01
2022-09-30T04:07:12.763Z,997.05
2022-09-30T04:08:12.755Z,997.01
2022-09-30T04:09:12.744Z,997.03
2022-09-30T04:10:12.727Z,996.99
2022-09-30T04:11:12.718Z,997.05
2022-09-30T04:12:12.707Z,997.04
2022-09-30T04:13:12.697Z,997.02
2022-09-30T04:14:12.690Z,997.05
2022-09-30T04:15:12.683Z,997.02
2022-09-30T04:16:12.672Z,997
2022-09-30T04:17:12.654Z,997.05
2022-09-30T04:18:13.444Z,997.03
2022-09-30T04:19:12.629Z,996.96
2022-09-30T04:20:12.623Z,996.96
2022-09-30T04:21:12.608Z,997
2022-09-30T04:22:12.599Z,996.99
2022-09-30T04:23:12.589Z,996.97
2022-09-30T04:24:12.599Z,997
2022-09-30T04:25:12.574Z,997.03
2022-09-30T04:26:12.560Z,997.01
2022-09-30T04:27:12.551Z,997.05
2022-09-30T04:28:12.567Z,997.04
2022-09-30T04:29:12.526Z,997.03
2022-09-30T04:30:12.515Z,997.06
2022-09-30T04:31:12.516Z,997.07
2022-09-30T04:32:12.493Z,997.13
2022-09-30T04:33:12.485Z,997.12
2022-09-30T04:34:12.476Z,997.15
2022-09-30T04:35:12.478Z,997.14
2022-09-30T04:36:12.448Z,997.16
2022-09-30T04:37:12.440Z,997.17
2022-09-30T04:38:12.439Z,997.21
2022-09-30T04:39:12.420Z,997.2
2022-09-30T04:40:12.412Z,997.14
2022-09-30T04:41:12.400Z,997.23
2022-09-30T04:42:12.388Z,997.27
2022-09-30T04:43:12.376Z,997.21
2022-09-30T04:44:12.364Z,997.16
2022-09-30T04:45:12.354Z,997.23
2022-09-30T04:46:12.343Z,997.28
2022-09-30T04:47:12.336Z,997.33
2022-09-30T04:48:12.334Z,997.3
2022-09-30T04:49:12.311Z,997.31
2022-09-30T04:50:12.309Z,997.36
2022-09-30T04:51:12.300Z,997.31
2022-09-30T04:52:12.281Z,997.34
2022-09-30T04:53:12.272Z,997.35
2022-09-30T04:54:12.269Z,997.41
2022-09-30T04:55:12.254Z,997.42
2022-09-30T04:56:12.291Z,997.45
2022-09-30T04:57:12.240Z,997.47
2022-09-30T04:58:12.215Z,997.46
2022-09-30T04:59:12.213Z,997.47
2022-09-30T05:00:12.202Z,997.49
2022-09-30T05:01:12.196Z,997.47
2022-09-30T05:02:12.176Z,997.53
2022-09-30T05:03:12.161Z,997.51
2022-09-30T05:04:12.149Z,997.54
2022-09-30T05:05:12.148Z,997.54
2022-09-30T05:06:12.134Z,997.64
2022-09-30T05:07:12.156Z,997.59
2022-09-30T05:08:12.108Z,997.56
2022-09-30T05:09:12.125Z,997.61
2022-09-30T05:10:12.091Z,997.6
2022-09-30T05:11:12.077Z,997.63
2022-09-30T05:12:12.070Z,997.6
2022-09-30T05:13:12.059Z,997.67
2022-09-30T05:14:12.100Z,997.67
2022-09-30T05:15:12.094Z,997.69
2022-09-30T05:16:12.049Z,997.75
2022-09-30T05:17:12.073Z,997.72
2022-09-30T05:18:12.001Z,997.7
2022-09-30T05:19:11.993Z,997.79
2022-09-30T05:20:11.984Z,997.8
2022-09-30T05:21:11.989Z,997.76
2022-09-30T05:22:11.971Z,997.79
2022-09-30T05:23:11.956Z,997.77
2022-09-30T05:24:11.941Z,997.76
2022-09-30T05:25:11.929Z,997.81
2022-09-30T05:26:11.924Z,997.75
2022-09-30T05:27:11.905Z,997.71
2022-09-30T05:28:11.897Z,997.75
2022-09-30T05:29:11.883Z,997.7
2022-09-30T05:30:11.992Z,997.75
2022-09-30T05:31:11.862Z,997.77
2022-09-30T05:32:11.875Z,997.78
2022-09-30T05:33:11.841Z,997.85
2022-09-30T05:34:11.833Z,997.82
2022-09-30T05:35:11.826Z,997.89
2022-09-30T05:36:11.814Z,997.86
2022-09-30T05:37:11.798Z,997.93
2022-09-30T05:38:11.791Z,997.84
2022-09-30T05:39:11.783Z,997.94
2022-09-30T05:40:11.768Z,997.92
2022-09-30T05:41:11.761Z,997.93
2022-09-30T05:42:11.748Z,997.9
2022-09-30T05:43:11.761Z,997.89
2022-09-30T05:44:11.727Z,997.94
2022-09-30T05:45:11.713Z,997.99
2022-09-30T05:46:11.756Z,997.94
2022-09-30T05:47:11.712Z,997.97
2022-09-30T05:48:11.686Z,997.98
2022-09-30T05:49:11.678Z,998.01
2022-09-30T05:50:11.660Z,998.01
2022-09-30T05:51:11.655Z,998
2022-09-30T05:52:11.650Z,998.01
2022-09-30T05:53:11.633Z,998.05
2022-09-30T05:54:11.657Z,998.05
2022-09-30T05:55:11.611Z,998.05
2022-09-30T05:56:11.745Z,998.11
2022-09-30T05:57:11.660Z,998.16
2022-09-30T05:58:11.591Z,998.15
2022-09-30T05:59:11.607Z,998.16
2022-09-30T06:00:11.621Z,998.23
2022-09-30T06:01:11.573Z,998.23
2022-09-30T06:02:11.567Z,998.18
2022-09-30T06:03:11.621Z,998.28
2022-09-30T06:04:11.520Z,998.23
2022-09-30T06:05:11.519Z,998.25
2022-09-30T06:06:11.505Z,998.28
2022-09-30T06:07:11.487Z,998.27
2022-09-30T06:08:11.484Z,998.17
2022-09-30T06:09:11.467Z,998.19
2022-09-30T06:10:11.452Z,998.21
2022-09-30T06:11:11.454Z,998.19
2022-09-30T06:12:11.459Z,998.17
2022-09-30T06:13:11.420Z,998.18
2022-09-30T06:14:11.422Z,998.19
2022-09-30T06:15:11.402Z,998.21
2022-09-30T06:16:11.438Z,998.3
2022-09-30T06:17:11.391Z,998.26
2022-09-30T06:18:11.370Z,998.26
2022-09-30T06:19:11.366Z,998.21
2022-09-30T06:20:11.348Z,998.24
2022-09-30T06:21:11.370Z,998.21
2022-09-30T06:22:11.344Z,998.28
2022-09-30T06:23:11.315Z,998.26
2022-09-30T06:24:11.308Z,998.21
2022-09-30T06:25:11.311Z,998.18
2022-09-30T06:26:11.293Z,998.3
2022-09-30T06:27:11.284Z,998.29
2022-09-30T06:28:11.279Z,998.29
2022-09-30T06:29:11.252Z,998.26
2022-09-30T06:30:11.240Z,998.28
2022-09-30T06:31:11.234Z,998.31
2022-09-30T06:32:11.222Z,998.36
2022-09-30T06:33:11.209Z,998.36
2022-09-30T06:34:11.204Z,998.39
2022-09-30T06:35:11.231Z,998.4
2022-09-30T06:36:11.173Z,998.4
2022-09-30T06:37:11.165Z,998.41
2022-09-30T06:38:11.191Z,998.43
2022-09-30T06:39:11.155Z,998.43
2022-09-30T06:40:11.143Z,998.46
2022-09-30T06:41:11.127Z,998.45
2022-09-30T06:42:11.147Z,998.4
2022-09-30T06:43:11.101Z,998.46
2022-09-30T06:44:11.090Z,998.44
2022-09-30T06:45:11.102Z,998.42
2022-09-30T06:46:11.082Z,998.42
2022-09-30T06:47:11.107Z,998.47
2022-09-30T06:48:11.050Z,998.5
2022-09-30T06:49:11.073Z,998.46
2022-09-30T06:50:11.033Z,998.5
2022-09-30T06:51:11.011Z,998.47
2022-09-30T06:52:11.016Z,998.5
2022-09-30T06:53:11.003Z,998.48
2022-09-30T06:54:10.985Z,998.54
2022-09-30T06:55:10.971Z,998.58
2022-09-30T06:56:10.959Z,998.57
2022-09-30T06:57:10.973Z,998.55
2022-09-30T06:58:10.947Z,998.56
2022-09-30T06:59:10.927Z,998.58
2022-09-30T07:00:10.922Z,998.56
2022-09-30T07:01:10.908Z,998.54
2022-09-30T07:02:10.905Z,998.5
2022-09-30T07:03:10.886Z,998.5
2022-09-30T07:04:10.912Z,998.56
2022-09-30T07:05:10.864Z,998.45
2022-09-30T07:06:10.857Z,998.51
2022-09-30T07:07:10.843Z,998.46
2022-09-30T07:08:10.838Z,998.44
2022-09-30T07:09:10.824Z,998.45
2022-09-30T07:10:10.808Z,998.47
2022-09-30T07:11:10.816Z,998.46
2022-09-30T07:12:10.786Z,998.49
2022-09-30T07:13:10.779Z,998.5
2022-09-30T07:14:10.770Z,998.54
2022-09-30T07:15:10.754Z,998.49
2022-09-30T07:16:10.747Z,998.55
2022-09-30T07:17:10.739Z,998.51
2022-09-30T07:18:10.722Z,998.53
2022-09-30T07:19:10.727Z,998.56
2022-09-30T07:20:10.719Z,998.51
2022-09-30T07:21:10.703Z,998.5
2022-09-30T07:22:10.675Z,998.55
2022-09-30T07:23:10.739Z,998.45
2022-09-30T07:24:10.658Z,998.56
2022-09-30T07:25:10.668Z,998.5
2022-09-30T07:26:10.660Z,998.54
2022-09-30T07:27:10.625Z,998.58
2022-09-30T07:28:10.611Z,998.57
2022-09-30T07:29:10.604Z,998.54
2022-09-30T07:30:10.591Z,998.54
2022-09-30T07:31:10.588Z,998.5
2022-09-30T07:32:10.567Z,998.57
2022-09-30T07:33:10.568Z,998.5
2022-09-30T07:34:10.552Z,998.55
2022-09-30T07:35:10.538Z,998.56
2022-09-30T07:36:10.582Z,998.56
2022-09-30T07:37:10.521Z,998.59
2022-09-30T07:38:10.514Z,998.56
2022-09-30T07:39:10.498Z,998.51
2022-09-30T07:40:10.487Z,998.54
2022-09-30T07:41:10.476Z,998.59
2022-09-30T07:42:10.463Z,998.66
2022-09-30T07:43:10.462Z,998.69
2022-09-30T07:44:10.498Z,998.68
2022-09-30T07:45:10.446Z,998.73
2022-09-30T07:46:10.422Z,998.73
2022-09-30T07:47:10.449Z,998.73
2022-09-30T07:48:10.407Z,998.68
2022-09-30T07:49:10.405Z,998.66
2022-09-30T07:50:10.383Z,998.6
2022-09-30T07:51:10.366Z,998.58
2022-09-30T07:52:10.357Z,998.62
2022-09-30T07:53:10.345Z,998.53
2022-09-30T07:54:10.372Z,998.6
2022-09-30T07:55:10.323Z,998.57
2022-09-30T07:56:10.312Z,998.63
2022-09-30T07:57:10.317Z,998.57
2022-09-30T07:58:10.290Z,998.63
2022-09-30T07:59:10.294Z,998.63
2022-09-30T08:00:10.267Z,998.67
2022-09-30T08:01:10.257Z,998.69
2022-09-30T08:02:10.258Z,998.63
2022-09-30T08:03:10.238Z,998.67
2022-09-30T08:04:10.234Z,998.66
2022-09-30T08:05:10.223Z,998.7
2022-09-30T08:06:10.217Z,998.69
2022-09-30T08:07:10.194Z,998.73
2022-09-30T08:08:10.189Z,998.74
2022-09-30T08:09:10.175Z,998.8
2022-09-30T08:10:10.183Z,998.73
2022-09-30T08:11:10.151Z,998.69
2022-09-30T08:12:10.144Z,998.71
2022-09-30T08:13:10.142Z,998.75
2022-09-30T08:14:10.124Z,998.75
2022-09-30T08:15:10.109Z,998.64
2022-09-30T08:16:10.096Z,998.66
2022-09-30T08:17:10.098Z,998.58
2022-09-30T08:18:10.127Z,998.59
2022-09-30T08:19:10.066Z,998.58
2022-09-30T08:20:10.054Z,998.62
2022-09-30T08:21:10.044Z,998.72
2022-09-30T08:22:10.039Z,998.72
2022-09-30T08:23:10.081Z,998.73
2022-09-30T08:24:10.007Z,998.66
2022-09-30T08:25:10.008Z,998.71
2022-09-30T08:26:10.006Z,998.76
2022-09-30T08:27:10.987Z,998.7
2022-09-30T08:28:09.977Z,998.77
2022-09-30T08:29:09.965Z,998.76
2022-09-30T08:30:09.963Z,998.82
2022-09-30T08:31:09.963Z,998.8
2022-09-30T08:32:09.925Z,998.84
2022-09-30T08:33:09.912Z,998.84
2022-09-30T08:34:09.910Z,998.87
2022-09-30T08:35:09.893Z,998.92
2022-09-30T08:36:09.892Z,998.97
2022-09-30T08:37:09.872Z,998.91
2022-09-30T08:38:09.866Z,998.96
2022-09-30T08:39:09.854Z,998.92
2022-09-30T08:40:09.845Z,998.9
2022-09-30T08:41:09.848Z,998.87
2022-09-30T08:42:09.820Z,998.86
2022-09-30T08:43:09.815Z,998.88
2022-09-30T08:44:09.796Z,998.89
2022-09-30T08:45:09.792Z,998.87
2022-09-30T08:46:09.782Z,998.86
2022-09-30T08:47:09.764Z,998.95
2022-09-30T08:48:09.938Z,998.91
2022-09-30T08:49:09.897Z,998.94
2022-09-30T08:50:09.728Z,998.97
2022-09-30T08:51:09.921Z,998.99
2022-09-30T08:52:09.712Z,999.01
2022-09-30T08:53:09.699Z,998.99
2022-09-30T08:54:09.711Z,998.98
2022-09-30T08:55:09.675Z,999.02
2022-09-30T08:56:09.666Z,998.97
2022-09-30T08:57:09.655Z,999.03
2022-09-30T08:58:09.643Z,998.94
2022-09-30T08:59:09.644Z,998.96
2022-09-30T09:00:09.619Z,999
2022-09-30T09:01:09.610Z,999
2022-09-30T09:02:09.603Z,999.02
2022-09-30T09:03:09.597Z,999.02
2022-09-30T09:04:09.581Z,999.05
2022-09-30T09:05:10.396Z,999.04
2022-09-30T09:06:09.564Z,999.08
2022-09-30T09:07:09.628Z,999.05
2022-09-30T09:08:09.535Z,999.03
2022-09-30T09:09:09.557Z,998.95
2022-09-30T09:10:09.535Z,999.02
2022-09-30T09:11:09.507Z,998.96
2022-09-30T09:12:09.494Z,999.01
2022-09-30T09:13:09.479Z,998.96
2022-09-30T09:14:09.477Z,998.98
2022-09-30T09:15:09.466Z,998.92
2022-09-30T09:16:09.451Z,998.86
2022-09-30T09:17:09.447Z,998.88
2022-09-30T09:18:09.431Z,998.89
2022-09-30T09:19:09.420Z,998.9
2022-09-30T09:20:09.416Z,998.92
2022-09-30T09:21:09.411Z,998.94
2022-09-30T09:22:09.399Z,998.89
2022-09-30T09:23:09.377Z,998.92
2022-09-30T09:24:09.361Z,998.9
2022-09-30T09:25:09.351Z,998.85
2022-09-30T09:26:09.347Z,998.82
2022-09-30T09:27:09.328Z,998.83
2022-09-30T09:28:09.328Z,998.88
2022-09-30T09:29:09.307Z,998.81
2022-09-30T09:30:09.300Z,998.91
2022-09-30T09:31:09.289Z,998.89
2022-09-30T09:32:09.282Z,998.88
2022-09-30T09:33:09.287Z,998.84
2022-09-30T09:34:09.255Z,998.8
2022-09-30T09:35:09.245Z,998.84
2022-09-30T09:36:09.233Z,998.82
2022-09-30T09:37:09.221Z,998.81
2022-09-30T09:38:09.205Z,998.81
2022-09-30T09:39:09.207Z,998.8
2022-09-30T09:40:09.189Z,998.84
2022-09-30T09:41:09.186Z,998.79
2022-09-30T09:42:09.272Z,998.77
2022-09-30T09:43:09.154Z,998.81
2022-09-30T09:44:09.148Z,998.77
2022-09-30T09:45:09.149Z,998.78
2022-09-30T09:46:09.145Z,998.8
2022-09-30T09:47:09.120Z,998.81
2022-09-30T09:48:09.099Z,998.75
2022-09-30T09:49:09.134Z,998.79
2022-09-30T09:50:09.082Z,998.76
2022-09-30T09:51:09.139Z,998.76
2022-09-30T09:52:09.063Z,998.75
2022-09-30T09:53:09.078Z,998.71
2022-09-30T09:54:09.109Z,998.73
2022-09-30T09:55:09.121Z,998.71
2022-09-30T09:56:09.043Z,998.73
2022-09-30T09:57:09.014Z,998.71
2022-09-30T09:58:08.995Z,998.66
2022-09-30T09:59:08.989Z,998.7
2022-09-30T10:00:08.976Z,998.73
2022-09-30T10:01:08.958Z,998.75
2022-09-30T10:02:08.955Z,998.73
2022-09-30T10:03:08.941Z,998.69
2022-09-30T10:04:08.941Z,998.74
2022-09-30T10:05:08.928Z,998.73
2022-09-30T10:06:08.917Z,998.77
2022-09-30T10:07:08.896Z,998.77
2022-09-30T10:08:08.889Z,998.76
2022-09-30T10:09:08.881Z,998.77
2022-09-30T10:10:08.865Z,998.75
2022-09-30T10:11:08.851Z,998.8
2022-09-30T10:12:08.842Z,998.75
2022-09-30T10:13:08.835Z,998.76
2022-09-30T10:14:08.831Z,998.74
2022-09-30T10:15:08.819Z,998.66
2022-09-30T10:16:08.800Z,998.72
2022-09-30T10:17:08.797Z,998.72
2022-09-30T10:18:08.834Z,998.72
2022-09-30T10:19:08.778Z,998.75
2022-09-30T10:20:08.766Z,998.68
2022-09-30T10:21:08.747Z,998.66
2022-09-30T10:22:08.738Z,998.64
2022-09-30T10:23:08.732Z,998.68
2022-09-30T10:24:08.741Z,998.7
2022-09-30T10:25:08.705Z,998.66
2022-09-30T10:26:08.697Z,998.71
2022-09-30T10:27:08.688Z,998.74
2022-09-30T10:28:08.681Z,998.68
2022-09-30T10:29:08.667Z,998.75
2022-09-30T10:30:08.660Z,998.71
2022-09-30T10:31:08.657Z,998.8
2022-09-30T10:32:08.633Z,998.79
2022-09-30T10:33:08.623Z,998.73
2022-09-30T10:34:08.615Z,998.78
2022-09-30T10:35:08.615Z,998.81
2022-09-30T10:36:08.603Z,998.83
2022-09-30T10:37:08.593Z,998.77
2022-09-30T10:38:08.637Z,998.76
2022-09-30T10:39:08.559Z,998.8
2022-09-30T10:40:08.553Z,998.83
2022-09-30T10:41:08.532Z,998.86
2022-09-30T10:42:08.535Z,998.83
2022-09-30T10:43:08.511Z,998.78
2022-09-30T10:44:08.502Z,998.76
2022-09-30T10:45:08.487Z,998.76
2022-09-30T10:46:08.485Z,998.62
2022-09-30T10:47:08.515Z,998.62
2022-09-30T10:48:08.458Z,998.61
2022-09-30T10:49:08.482Z,998.85
2022-09-30T10:50:08.435Z,998.95
2022-09-30T10:51:08.433Z,998.93
2022-09-30T10:52:08.415Z,999
2022-09-30T10:53:08.611Z,998.62
2022-09-30T10:54:08.391Z,999.01
2022-09-30T10:55:08.386Z,998.69
2022-09-30T10:56:08.382Z,999.01
2022-09-30T10:57:08.376Z,999.07
2022-09-30T10:58:08.369Z,999.05
2022-09-30T10:59:08.339Z,999.08
2022-09-30T11:00:08.373Z,998.88
2022-09-30T11:01:08.317Z,998.61
2022-09-30T11:02:08.310Z,998.62
2022-09-30T11:03:08.294Z,998.69
2022-09-30T11:04:08.292Z,998.95
2022-09-30T11:05:08.280Z,999.11
2022-09-30T11:06:08.269Z,999.02
2022-09-30T11:07:08.255Z,999.11
2022-09-30T11:08:08.241Z,999.14
2022-09-30T11:09:08.235Z,999.02
2022-09-30T11:10:08.227Z,998.65
2022-09-30T11:11:08.225Z,998.81
2022-09-30T11:12:08.247Z,998.73
2022-09-30T11:13:08.190Z,999.07
2022-09-30T11:14:08.181Z,999.14
2022-09-30T11:15:08.169Z,999.04
2022-09-30T11:16:08.203Z,999.07
2022-09-30T11:17:08.147Z,999.13
2022-09-30T11:18:08.144Z,999.08
2022-09-30T11:19:08.134Z,999.13
2022-09-30T11:20:08.115Z,999.14
2022-09-30T11:21:08.108Z,999.1
2022-09-30T11:22:08.097Z,999.05
2022-09-30T11:23:08.082Z,999.13
2022-09-30T11:24:08.074Z,998.99
2022-09-30T11:25:08.078Z,999.07
2022-09-30T11:26:08.055Z,999.06
2022-09-30T11:27:08.041Z,999.09
2022-09-30T11:28:08.035Z,999
2022-09-30T11:29:08.022Z,998.95
2022-09-30T11:30:08.063Z,998.96
2022-09-30T11:31:08.007Z,999.01
2022-09-30T11:32:07.993Z,999.02
2022-09-30T11:33:08.032Z,999.03
2022-09-30T11:34:08.014Z,998.74
2022-09-30T11:35:07.959Z,998.94
2022-09-30T11:36:07.955Z,999.06
2022-09-30T11:37:07.950Z,999.01
2022-09-30T11:38:07.931Z,999.01
2022-09-30T11:39:07.953Z,998.95
2022-09-30T11:40:07.923Z,999.07
2022-09-30T11:41:08.179Z,999.06
2022-09-30T11:42:07.888Z,999.08
2022-09-30T11:43:07.964Z,999
2022-09-30T11:44:08.099Z,999
2022-09-30T11:45:07.871Z,998.99
2022-09-30T11:46:07.883Z,998.99
2022-09-30T11:47:07.858Z,998.97
2022-09-30T11:48:07.849Z,998.98
2022-09-30T11:49:07.820Z,999.02
2022-09-30T11:50:07.821Z,998.94
2022-09-30T11:51:07.797Z,998.96
2022-09-30T11:52:07.793Z,998.92
2022-09-30T11:53:08.010Z,999.09
2022-09-30T11:54:07.779Z,998.89
2022-09-30T11:55:07.771Z,999
2022-09-30T11:56:07.785Z,998.98
2022-09-30T11:57:07.740Z,998.97
2022-09-30T11:58:07.739Z,999.03
2022-09-30T11:59:07.724Z,998.95
2022-09-30T12:00:07.723Z,998.97
2022-09-30T12:01:07.696Z,998.94
2022-09-30T12:02:07.694Z,999.04
2022-09-30T12:03:07.698Z,999.02
2022-09-30T12:04:07.674Z,998.97
2022-09-30T12:05:07.663Z,999.02
2022-09-30T12:06:07.658Z,998.99
2022-09-30T12:07:07.651Z,999.04
2022-09-30T12:08:07.631Z,999.02
2022-09-30T12:09:07.635Z,999.07
2022-09-30T12:10:07.609Z,999.04
2022-09-30T12:11:07.603Z,999.03
2022-09-30T12:12:07.596Z,999.07
2022-09-30T12:13:07.584Z,999.11
2022-09-30T12:14:07.567Z,999.11
2022-09-30T12:15:07.562Z,999.06
2022-09-30T12:16:07.598Z,999.07
2022-09-30T12:17:07.606Z,998.61
2022-09-30T12:18:07.527Z,998.87
2022-09-30T12:19:07.515Z,998.98
2022-09-30T12:20:07.519Z,999.07
2022-09-30T12:21:07.502Z,999.01
2022-09-30T12:22:07.497Z,998.53
2022-09-30T12:23:07.554Z,998.57
2022-09-30T12:24:07.473Z,998.82
2022-09-30T12:25:07.456Z,998.91
2022-09-30T12:26:07.445Z,998.97
2022-09-30T12:27:07.435Z,998.96
2022-09-30T12:28:07.459Z,998.73
2022-09-30T12:29:07.462Z,998.86
2022-09-30T12:30:07.408Z,998.91
2022-09-30T12:31:07.393Z,998.92